sensor_id;sensor_type;location;lat;lon;timestamp;P1;durP1;ratioP1;P2;durP2;ratioP2
6519;SDS011;3293;51.690;5.982;2022-11-20T00:03:00;36.70;;;26.87;;
6519;SDS011;3293;51.690;5.982;2022-11-20T00:08:00;29.80;;;22.17;;
6519;SDS011;3293;51.690;5.982;2022-11-20T00:13:00;32.87;;;23.10;;
6519;SDS011;3293;51.690;5.982;2022-11-20T00:18:00;25.23;;;18.23;;
6519;SDS011;3293;51.690;5.982;2022-11-20T00:22:59;24.83;;;17.90;;
6519;SDS011;3293;51.690;5.982;2022-11-20T00:27:59;23.40;;;17.43;;
6519;SDS011;3293;51.690;5.982;2022-11-20T00:32:59;29.30;;;17.93;;
6519;SDS011;3293;51.690;5.982;2022-11-20T00:37:59;29.07;;;18.83;;
6519;SDS011;3293;51.690;5.982;2022-11-20T00:42:59;31.93;;;18.77;;
6519;SDS011;3293;51.690;5.982;2022-11-20T00:47:59;27.07;;;18.27;;
6519;SDS011;3293;51.690;5.982;2022-11-20T00:52:59;26.83;;;17.67;;
6519;SDS011;3293;51.690;5.982;2022-11-20T00:57:59;25.53;;;17.43;;
6519;SDS011;3293;51.690;5.982;2022-11-20T01:02:59;26.63;;;17.23;;
6519;SDS011;3293;51.690;5.982;2022-11-20T01:07:59;31.23;;;21.43;;
6519;SDS011;3293;51.690;5.982;2022-11-20T01:12:59;31.10;;;21.90;;
6519;SDS011;3293;51.690;5.982;2022-11-20T01:18:17;28.67;;;19.23;;
6519;SDS011;3293;51.690;5.982;2022-11-20T01:23:17;26.00;;;17.20;;
6519;SDS011;3293;51.690;5.982;2022-11-20T01:28:17;24.37;;;16.23;;
6519;SDS011;3293;51.690;5.982;2022-11-20T01:33:17;27.40;;;17.67;;
6519;SDS011;3293;51.690;5.982;2022-11-20T01:38:17;24.53;;;17.87;;
6519;SDS011;3293;51.690;5.982;2022-11-20T01:43:17;25.07;;;18.57;;
6519;SDS011;3293;51.690;5.982;2022-11-20T01:48:21;25.83;;;18.20;;
6519;SDS011;3293;51.690;5.982;2022-11-20T01:53:25;26.10;;;17.77;;
6519;SDS011;3293;51.690;5.982;2022-11-20T01:58:30;25.30;;;17.00;;
6519;SDS011;3293;51.690;5.982;2022-11-20T02:03:33;26.30;;;17.80;;
6519;SDS011;3293;51.690;5.982;2022-11-20T02:08:34;25.20;;;17.77;;
6519;SDS011;3293;51.690;5.982;2022-11-20T02:13:34;26.87;;;18.53;;
6519;SDS011;3293;51.690;5.982;2022-11-20T02:18:44;27.73;;;19.30;;
6519;SDS011;3293;51.690;5.982;2022-11-20T02:29:04;29.57;;;18.97;;
6519;SDS011;3293;51.690;5.982;2022-11-20T02:34:04;28.07;;;19.77;;
6519;SDS011;3293;51.690;5.982;2022-11-20T02:39:04;24.13;;;18.13;;
6519;SDS011;3293;51.690;5.982;2022-11-20T02:44:05;28.73;;;20.10;;
6519;SDS011;3293;51.690;5.982;2022-11-20T02:49:05;27.40;;;18.50;;
6519;SDS011;3293;51.690;5.982;2022-11-20T02:54:05;29.17;;;18.50;;
6519;SDS011;3293;51.690;5.982;2022-11-20T02:59:05;30.50;;;19.00;;
6519;SDS011;3293;51.690;5.982;2022-11-20T03:04:05;28.07;;;18.47;;
6519;SDS011;3293;51.690;5.982;2022-11-20T03:09:05;25.33;;;18.87;;
6519;SDS011;3293;51.690;5.982;2022-11-20T03:14:06;27.40;;;19.27;;
6519;SDS011;3293;51.690;5.982;2022-11-20T03:19:06;28.00;;;19.07;;
6519;SDS011;3293;51.690;5.982;2022-11-20T03:24:06;28.73;;;19.30;;
6519;SDS011;3293;51.690;5.982;2022-11-20T03:29:06;29.00;;;18.77;;
6519;SDS011;3293;51.690;5.982;2022-11-20T03:34:07;32.20;;;19.33;;
6519;SDS011;3293;51.690;5.982;2022-11-20T03:39:08;25.90;;;17.93;;
6519;SDS011;3293;51.690;5.982;2022-11-20T03:44:09;27.87;;;19.47;;
6519;SDS011;3293;51.690;5.982;2022-11-20T03:49:11;29.17;;;19.47;;
6519;SDS011;3293;51.690;5.982;2022-11-20T03:54:11;27.87;;;19.23;;
6519;SDS011;3293;51.690;5.982;2022-11-20T03:59:11;27.30;;;19.00;;
6519;SDS011;3293;51.690;5.982;2022-11-20T04:04:11;30.37;;;19.70;;
6519;SDS011;3293;51.690;5.982;2022-11-20T04:09:10;28.07;;;19.37;;
6519;SDS011;3293;51.690;5.982;2022-11-20T04:14:14;26.20;;;18.70;;
6519;SDS011;3293;51.690;5.982;2022-11-20T04:19:16;27.37;;;19.30;;
6519;SDS011;3293;51.690;5.982;2022-11-20T04:24:16;26.87;;;18.53;;
6519;SDS011;3293;51.690;5.982;2022-11-20T04:29:16;27.60;;;19.00;;
6519;SDS011;3293;51.690;5.982;2022-11-20T04:34:15;28.90;;;19.30;;
6519;SDS011;3293;51.690;5.982;2022-11-20T04:39:16;28.37;;;19.70;;
6519;SDS011;3293;51.690;5.982;2022-11-20T04:44:16;24.97;;;17.87;;
6519;SDS011;3293;51.690;5.982;2022-11-20T04:49:16;32.13;;;19.70;;
6519;SDS011;3293;51.690;5.982;2022-11-20T04:54:16;25.30;;;18.27;;
6519;SDS011;3293;51.690;5.982;2022-11-20T04:59:16;29.15;;;18.45;;
6519;SDS011;3293;51.690;5.982;2022-11-20T05:04:16;29.27;;;19.20;;
6519;SDS011;3293;51.690;5.982;2022-11-20T05:09:16;27.10;;;19.70;;
6519;SDS011;3293;51.690;5.982;2022-11-20T05:14:15;26.87;;;19.33;;
6519;SDS011;3293;51.690;5.982;2022-11-20T05:19:15;28.07;;;18.27;;
6519;SDS011;3293;51.690;5.982;2022-11-20T05:24:15;28.00;;;18.37;;
6519;SDS011;3293;51.690;5.982;2022-11-20T05:29:16;26.37;;;18.43;;
6519;SDS011;3293;51.690;5.982;2022-11-20T05:34:15;28.57;;;18.97;;
6519;SDS011;3293;51.690;5.982;2022-11-20T05:39:16;30.50;;;19.37;;
6519;SDS011;3293;51.690;5.982;2022-11-20T05:44:16;27.03;;;18.53;;
6519;SDS011;3293;51.690;5.982;2022-11-20T05:49:15;23.93;;;17.67;;
6519;SDS011;3293;51.690;5.982;2022-11-20T05:54:15;26.67;;;19.27;;
6519;SDS011;3293;51.690;5.982;2022-11-20T05:59:15;27.67;;;18.60;;
6519;SDS011;3293;51.690;5.982;2022-11-20T06:04:15;27.97;;;18.60;;
6519;SDS011;3293;51.690;5.982;2022-11-20T06:09:15;30.47;;;20.57;;
6519;SDS011;3293;51.690;5.982;2022-11-20T06:14:15;26.33;;;18.33;;
6519;SDS011;3293;51.690;5.982;2022-11-20T06:19:15;28.47;;;19.83;;
6519;SDS011;3293;51.690;5.982;2022-11-20T06:24:16;29.80;;;20.13;;
6519;SDS011;3293;51.690;5.982;2022-11-20T07:04:17;28.80;;;19.73;;
6519;SDS011;3293;51.690;5.982;2022-11-20T07:09:17;28.50;;;20.63;;
6519;SDS011;3293;51.690;5.982;2022-11-20T07:14:17;31.83;;;21.20;;
6519;SDS011;3293;51.690;5.982;2022-11-20T08:09:16;28.63;;;18.93;;
6519;SDS011;3293;51.690;5.982;2022-11-20T08:14:16;25.47;;;19.17;;
6519;SDS011;3293;51.690;5.982;2022-11-20T08:19:17;29.37;;;19.57;;
6519;SDS011;3293;51.690;5.982;2022-11-20T08:24:17;25.07;;;18.27;;
6519;SDS011;3293;51.690;5.982;2022-11-20T08:29:17;26.27;;;18.57;;
6519;SDS011;3293;51.690;5.982;2022-11-20T08:34:17;26.23;;;19.03;;
6519;SDS011;3293;51.690;5.982;2022-11-20T08:39:17;29.20;;;20.00;;
6519;SDS011;3293;51.690;5.982;2022-11-20T08:44:17;28.80;;;20.03;;
6519;SDS011;3293;51.690;5.982;2022-11-20T08:49:17;29.00;;;19.17;;
6519;SDS011;3293;51.690;5.982;2022-11-20T08:54:17;25.90;;;18.83;;
6519;SDS011;3293;51.690;5.982;2022-11-20T08:59:19;30.27;;;20.47;;
6519;SDS011;3293;51.690;5.982;2022-11-20T09:04:18;28.90;;;18.67;;
6519;SDS011;3293;51.690;5.982;2022-11-20T09:09:19;24.73;;;18.40;;
6519;SDS011;3293;51.690;5.982;2022-11-20T09:14:19;27.07;;;18.90;;
6519;SDS011;3293;51.690;5.982;2022-11-20T09:19:20;28.30;;;18.67;;
6519;SDS011;3293;51.690;5.982;2022-11-20T09:24:20;26.27;;;17.77;;
6519;SDS011;3293;51.690;5.982;2022-11-20T09:29:20;26.57;;;18.23;;
6519;SDS011;3293;51.690;5.982;2022-11-20T09:34:20;25.10;;;18.10;;
6519;SDS011;3293;51.690;5.982;2022-11-20T09:39:20;28.67;;;18.33;;
6519;SDS011;3293;51.690;5.982;2022-11-20T09:49:57;29.63;;;19.20;;
6519;SDS011;3293;51.690;5.982;2022-11-20T09:55:11;26.27;;;19.43;;
6519;SDS011;3293;51.690;5.982;2022-11-20T10:00:14;24.80;;;19.63;;
6519;SDS011;3293;51.690;5.982;2022-11-20T10:05:17;28.47;;;20.13;;
6519;SDS011;3293;51.690;5.982;2022-11-20T10:15:46;27.43;;;19.90;;
6519;SDS011;3293;51.690;5.982;2022-11-20T10:27:34;28.83;;;20.10;;
6519;SDS011;3293;51.690;5.982;2022-11-20T10:32:23;31.20;;;20.80;;
6519;SDS011;3293;51.690;5.982;2022-11-20T10:37:29;31.27;;;19.30;;
6519;SDS011;3293;51.690;5.982;2022-11-20T10:42:34;25.77;;;18.37;;
6519;SDS011;3293;51.690;5.982;2022-11-20T10:47:41;24.57;;;18.43;;
6519;SDS011;3293;51.690;5.982;2022-11-20T10:57:54;26.40;;;19.80;;
6519;SDS011;3293;51.690;5.982;2022-11-20T11:03:28;30.90;;;19.83;;
6519;SDS011;3293;51.690;5.982;2022-11-20T11:08:32;30.07;;;19.10;;
6519;SDS011;3293;51.690;5.982;2022-11-20T11:13:36;26.10;;;19.17;;
6519;SDS011;3293;51.690;5.982;2022-11-20T11:18:36;24.77;;;18.33;;
6519;SDS011;3293;51.690;5.982;2022-11-20T11:28:40;27.63;;;19.13;;
6519;SDS011;3293;51.690;5.982;2022-11-20T11:33:40;26.80;;;19.20;;
6519;SDS011;3293;51.690;5.982;2022-11-20T11:38:41;25.67;;;18.43;;
6519;SDS011;3293;51.690;5.982;2022-11-20T11:43:50;29.57;;;19.43;;
6519;SDS011;3293;51.690;5.982;2022-11-20T11:49:15;28.03;;;20.00;;
6519;SDS011;3293;51.690;5.982;2022-11-20T11:54:19;33.27;;;21.07;;
6519;SDS011;3293;51.690;5.982;2022-11-20T11:59:33;30.33;;;19.97;;
6519;SDS011;3293;51.690;5.982;2022-11-20T12:04:48;26.73;;;19.90;;
6519;SDS011;3293;51.690;5.982;2022-11-20T12:09:56;27.77;;;19.10;;
6519;SDS011;3293;51.690;5.982;2022-11-20T12:14:57;31.20;;;20.13;;
6519;SDS011;3293;51.690;5.982;2022-11-20T12:19:58;28.53;;;18.93;;
6519;SDS011;3293;51.690;5.982;2022-11-20T12:25:06;28.30;;;19.97;;
6519;SDS011;3293;51.690;5.982;2022-11-20T12:30:12;27.53;;;19.70;;
6519;SDS011;3293;51.690;5.982;2022-11-20T12:41:12;33.70;;;21.23;;
6519;SDS011;3293;51.690;5.982;2022-11-20T12:46:59;30.40;;;21.23;;
6519;SDS011;3293;51.690;5.982;2022-11-20T12:52:30;34.43;;;22.80;;
6519;SDS011;3293;51.690;5.982;2022-11-20T13:03:32;33.67;;;23.17;;
6519;SDS011;3293;51.690;5.982;2022-11-20T13:08:40;39.43;;;24.83;;
6519;SDS011;3293;51.690;5.982;2022-11-20T13:19:11;38.57;;;23.93;;
6519;SDS011;3293;51.690;5.982;2022-11-20T13:29:18;43.57;;;26.77;;
6519;SDS011;3293;51.690;5.982;2022-11-20T13:34:26;46.67;;;26.27;;
6519;SDS011;3293;51.690;5.982;2022-11-20T13:39:27;51.83;;;30.00;;
6519;SDS011;3293;51.690;5.982;2022-11-20T13:44:33;62.83;;;30.83;;
6519;SDS011;3293;51.690;5.982;2022-11-20T13:49:38;59.67;;;30.00;;
6519;SDS011;3293;51.690;5.982;2022-11-20T14:00:17;62.90;;;29.23;;
6519;SDS011;3293;51.690;5.982;2022-11-20T14:05:22;58.80;;;29.50;;
6519;SDS011;3293;51.690;5.982;2022-11-20T14:10:27;61.40;;;29.55;;
6519;SDS011;3293;51.690;5.982;2022-11-20T14:15:34;66.43;;;31.80;;
6519;SDS011;3293;51.690;5.982;2022-11-20T14:35:37;68.80;;;33.00;;
6519;SDS011;3293;51.690;5.982;2022-11-20T14:40:43;62.27;;;31.57;;
6519;SDS011;3293;51.690;5.982;2022-11-20T14:45:45;71.93;;;33.87;;
6519;SDS011;3293;51.690;5.982;2022-11-20T14:50:56;66.33;;;31.77;;
6519;SDS011;3293;51.690;5.982;2022-11-20T14:55:57;63.47;;;34.07;;
6519;SDS011;3293;51.690;5.982;2022-11-20T15:01:00;64.97;;;32.47;;
6519;SDS011;3293;51.690;5.982;2022-11-20T15:06:02;61.07;;;31.83;;
6519;SDS011;3293;51.690;5.982;2022-11-20T15:11:02;62.00;;;30.67;;
6519;SDS011;3293;51.690;5.982;2022-11-20T15:16:17;61.20;;;31.30;;
6519;SDS011;3293;51.690;5.982;2022-11-20T15:21:19;65.93;;;31.10;;
6519;SDS011;3293;51.690;5.982;2022-11-20T15:26:26;60.63;;;31.73;;
6519;SDS011;3293;51.690;5.982;2022-11-20T15:31:27;59.40;;;31.70;;
6519;SDS011;3293;51.690;5.982;2022-11-20T15:46:27;63.97;;;31.70;;
6519;SDS011;3293;51.690;5.982;2022-11-20T15:51:37;66.50;;;31.37;;
6519;SDS011;3293;51.690;5.982;2022-11-20T15:56:38;66.13;;;32.67;;
6519;SDS011;3293;51.690;5.982;2022-11-20T16:01:38;59.17;;;30.63;;
6519;SDS011;3293;51.690;5.982;2022-11-20T16:06:38;65.80;;;31.47;;
6519;SDS011;3293;51.690;5.982;2022-11-20T16:11:39;54.40;;;29.80;;
6519;SDS011;3293;51.690;5.982;2022-11-20T16:16:39;53.37;;;28.23;;
6519;SDS011;3293;51.690;5.982;2022-11-20T16:21:40;49.77;;;27.30;;
6519;SDS011;3293;51.690;5.982;2022-11-20T16:26:41;53.27;;;29.63;;
6519;SDS011;3293;51.690;5.982;2022-11-20T16:31:41;58.90;;;30.65;;
6519;SDS011;3293;51.690;5.982;2022-11-20T16:36:41;54.53;;;29.83;;
6519;SDS011;3293;51.690;5.982;2022-11-20T16:41:42;57.70;;;30.57;;
6519;SDS011;3293;51.690;5.982;2022-11-20T16:46:42;59.47;;;29.83;;
6519;SDS011;3293;51.690;5.982;2022-11-20T16:51:42;58.10;;;27.90;;
6519;SDS011;3293;51.690;5.982;2022-11-20T16:56:42;56.50;;;30.50;;
6519;SDS011;3293;51.690;5.982;2022-11-20T17:06:45;55.80;;;30.20;;
6519;SDS011;3293;51.690;5.982;2022-11-20T17:36:47;63.40;;;33.10;;
6519;SDS011;3293;51.690;5.982;2022-11-20T19:02:45;53.73;;;26.77;;
6519;SDS011;3293;51.690;5.982;2022-11-20T19:07:46;61.15;;;30.65;;
6519;SDS011;3293;51.690;5.982;2022-11-20T21:58:12;76.70;;;41.85;;
